April Moran — WDJ2163 — position and weather

sailwx.info

Track history (hours):
 
Tides and Currents Weather Stations Pressure Air Temp Water Temp Dewpoint Dewpoint Depression Visibility Wind Speed Wind Dir Waves Ship Positions

April Moran

Owner: Moran Towing Corporation, New Canaan, CT. More information available from US FCC via Universal Licensing System and Coast Guard Vessel Documentation Center.

Last reported at 2017-Oct-19 16:00 UTC. Time now 2017-Oct-19 16:14 UTC.
Position N 39°17' W 076°36'.

Length 29 m; draft 3.9 m.

Type: Tug. MMSI: 367139510.

Date/timePositionNaut miles runAvg speedWind from/ knotsBaromVisibWave heightAir tempDewpointWater temp
2017-Oct-19 16:00N 39°17' W 076°36'1 2.5
2017-Oct-19 15:30N 39°16' W 076°34'0 0.0
2017-Oct-19 15:00N 39°16' W 076°34'0 0.0
2017-Oct-19 14:30N 39°16' W 076°34'0 0.0
2017-Oct-19 14:00N 39°16' W 076°34'1 2.5
2017-Oct-19 13:30N 39°15' W 076°33'2 4.8
2017-Oct-19 13:00N 39°13' W 076°32'1 2.6
2017-Oct-19 12:30N 39°13' W 076°30'0 0.7
2017-Oct-19 12:00N 39°13' W 076°30'1 1.9
2017-Oct-19 11:30N 39°12' W 076°31'2 3.4
2017-Oct-19 11:00N 39°12' W 076°29'0 0.8
2017-Oct-19 10:28N 39°12' W 076°29'0 0.0
2017-Oct-19 10:00N 39°12' W 076°29'0 0.0
2017-Oct-19 09:30N 39°12' W 076°29'0 0.0
2017-Oct-19 09:00N 39°12' W 076°29'0 0.0
2017-Oct-19 08:30N 39°12' W 076°29'5 2.1
2017-Oct-19 06:13N 39°16' W 076°33'0 0.2
2017-Oct-19 05:59N 39°16' W 076°33'0 0.4
2017-Oct-19 05:30N 39°15' W 076°33'0 0.0
2017-Oct-19 05:00N 39°15' W 076°33'0 0.0
2017-Oct-19 04:30N 39°15' W 076°33'2 3.0
2017-Oct-19 04:00N 39°14' W 076°32'1 1.8
2017-Oct-19 03:30N 39°14' W 076°32'0 1.0
2017-Oct-19 03:01N 39°13' W 076°32'2 3.6
2017-Oct-19 02:30N 39°15' W 076°32'0 0.2
2017-Oct-19 02:00N 39°15' W 076°32'2 3.5
2017-Oct-19 01:31N 39°16' W 076°34'0 0.0
2017-Oct-19 01:01N 39°16' W 076°34'0 0.0
2017-Oct-19 00:31N 39°16' W 076°34'0 0.0
2017-Oct-19 00:01N 39°16' W 076°34'0 0.0
2017-Oct-18 23:31N 39°16' W 076°34'0 0.0
2017-Oct-18 23:01N 39°16' W 076°34'0 0.0
2017-Oct-18 22:30N 39°16' W 076°34'1 2.1
2017-Oct-18 22:01N 39°16' W 076°36'2 3.5
2017-Oct-18 21:30N 39°15' W 076°34'0 1.0
2017-Oct-18 21:01N 39°15' W 076°33'1 1.5
2017-Oct-18 20:30N 39°14' W 076°33'2 4.5
2017-Oct-18 20:01N 39°16' W 076°34'0 0.0
2017-Oct-18 19:30N 39°16' W 076°34'0 0.0
2017-Oct-18 19:00N 39°16' W 076°34'0 0.0
2017-Oct-18 18:30N 39°16' W 076°34'0 0.0
2017-Oct-18 18:00N 39°16' W 076°34'0 0.0
2017-Oct-18 17:30N 39°16' W 076°34'0 0.0
2017-Oct-18 17:00N 39°16' W 076°34'0 0.0
2017-Oct-18 16:30N 39°16' W 076°34'0 0.0
2017-Oct-18 16:00N 39°16' W 076°34'0 0.0
2017-Oct-18 15:30N 39°16' W 076°34'0 0.0
2017-Oct-18 15:00N 39°16' W 076°34'0 0.0
2017-Oct-18 14:00N 39°16' W 076°34'0 0.0
2017-Oct-18 13:30N 39°16' W 076°34'0 0.0
2017-Oct-18 13:00N 39°16' W 076°34'0 0.0
2017-Oct-18 12:30N 39°16' W 076°34'0 0.0
2017-Oct-18 12:00N 39°16' W 076°34'0 0.0
2017-Oct-18 11:30N 39°16' W 076°34'0 0.0
2017-Oct-18 11:00N 39°16' W 076°34'0 0.0
2017-Oct-18 10:30N 39°16' W 076°34'0 0.0
2017-Oct-18 10:00N 39°16' W 076°34'0 0.0
2017-Oct-18 09:30N 39°16' W 076°34'0 0.0
2017-Oct-18 09:00N 39°16' W 076°34'0 0.0
2017-Oct-18 08:30N 39°16' W 076°34'0 0.0
2017-Oct-18 08:00N 39°16' W 076°34'0 0.0
2017-Oct-18 07:30N 39°16' W 076°34'0 0.0
2017-Oct-18 07:00N 39°16' W 076°34'0 0.0
2017-Oct-18 06:30N 39°16' W 076°34'0 0.0
2017-Oct-18 06:00N 39°16' W 076°34'0 0.0
2017-Oct-18 05:30N 39°16' W 076°34'0 0.0
2017-Oct-18 05:00N 39°16' W 076°34'0 0.0
2017-Oct-18 04:30N 39°16' W 076°34'0 0.0
2017-Oct-18 04:00N 39°16' W 076°34'0 0.0
2017-Oct-18 03:30N 39°16' W 076°34'0 0.0
2017-Oct-18 03:00N 39°16' W 076°34'0 1.0
2017-Oct-18 02:31N 39°15' W 076°34'0 0.4
2017-Oct-18 02:01N 39°15' W 076°34'2 3.1
2017-Oct-18 01:29N 39°14' W 076°33'1 1.8
2017-Oct-18 01:00N 39°15' W 076°32'0 0.0
2017-Oct-18 00:31N 39°15' W 076°32'0 0.0
2017-Oct-17 23:58N 39°15' W 076°32'0 0.8
2017-Oct-17 23:30N 39°15' W 076°32'1 2.0
2017-Oct-17 23:00N 39°14' W 076°33'2 3.2
2017-Oct-17 22:30N 39°16' W 076°34'0 0.0
2017-Oct-17 22:00N 39°16' W 076°34'0 0.0
2017-Oct-17 21:30N 39°16' W 076°34'0 0.0
2017-Oct-17 21:00N 39°16' W 076°34'0 0.0
2017-Oct-17 20:30N 39°16' W 076°34'0 0.0
2017-Oct-17 20:00N 39°16' W 076°34'0 0.0
2017-Oct-17 19:30N 39°16' W 076°34'0 0.0
2017-Oct-17 19:00N 39°16' W 076°34'0 0.0
2017-Oct-17 18:30N 39°16' W 076°34'1 1.3
2017-Oct-17 18:00N 39°15' W 076°34'0 0.3
2017-Oct-17 17:30N 39°15' W 076°34'1 1.1
2017-Oct-17 17:00N 39°16' W 076°34'0 0.0
2017-Oct-17 16:30N 39°16' W 076°34'0 0.0
2017-Oct-17 16:00N 39°16' W 076°34'0 0.0
2017-Oct-17 15:30N 39°16' W 076°34'0 0.0
2017-Oct-17 15:00N 39°16' W 076°34'0 0.0
2017-Oct-17 14:30N 39°16' W 076°34'0 0.0
2017-Oct-17 14:00N 39°16' W 076°34'0 0.0
2017-Oct-17 13:30N 39°16' W 076°34'0 0.0
2017-Oct-17 13:00N 39°16' W 076°34'0 0.0
2017-Oct-17 12:30N 39°16' W 076°34'0 0.0
2017-Oct-17 12:00N 39°16' W 076°34'0 0.0
2017-Oct-17 11:30N 39°16' W 076°34'0 0.0
2017-Oct-17 11:00N 39°16' W 076°34'0 0.0
2017-Oct-17 10:30N 39°16' W 076°34'1 1.5
2017-Oct-17 10:00N 39°15' W 076°34'1 1.4
2017-Oct-17 09:30N 39°15' W 076°33'1 2.9
2017-Oct-17 09:00N 39°14' W 076°33'2 4.9
2017-Oct-17 08:30N 39°16' W 076°34'0 0.0
2017-Oct-17 08:00N 39°16' W 076°34'0 0.0
2017-Oct-17 07:30N 39°16' W 076°34'0 0.0
2017-Oct-17 07:00N 39°16' W 076°34'0 0.0
2017-Oct-17 06:30N 39°16' W 076°34'0 0.0
2017-Oct-17 06:00N 39°16' W 076°34'0 0.0
2017-Oct-17 05:30N 39°16' W 076°34'0 0.0
2017-Oct-17 05:00N 39°16' W 076°34'0 0.0
2017-Oct-17 04:30N 39°16' W 076°34'0 0.0
2017-Oct-17 04:00N 39°16' W 076°34'0 0.0
2017-Oct-17 03:30N 39°16' W 076°34'0 0.0
2017-Oct-17 03:00N 39°16' W 076°34'0 0.0
2017-Oct-17 02:30N 39°16' W 076°34'0 0.0
2017-Oct-17 02:00N 39°16' W 076°34'0 0.0
2017-Oct-17 01:30N 39°16' W 076°34'0 0.0
2017-Oct-17 01:00N 39°16' W 076°34'0 0.0
2017-Oct-17 00:30N 39°16' W 076°34'0 0.0
2017-Oct-17 00:00N 39°16' W 076°34'0 0.0
2017-Oct-16 23:30N 39°16' W 076°34'0 0.0
2017-Oct-16 23:00N 39°16' W 076°34'0 0.0
2017-Oct-16 22:30N 39°16' W 076°34'0 0.0
2017-Oct-16 22:00N 39°16' W 076°34'0 0.0
2017-Oct-16 21:30N 39°16' W 076°34'0 0.0
2017-Oct-16 21:00N 39°16' W 076°34'0 0.0
2017-Oct-16 20:30N 39°16' W 076°34'0 0.0
2017-Oct-16 20:00N 39°16' W 076°34'0 0.0
2017-Oct-16 19:30N 39°16' W 076°34'0 0.0
2017-Oct-16 19:00N 39°16' W 076°34'0 0.0
2017-Oct-16 18:30N 39°16' W 076°34'0 0.0
2017-Oct-16 18:00N 39°16' W 076°34'0 0.0
2017-Oct-16 17:30N 39°16' W 076°34'3 5.1
2017-Oct-16 17:00N 39°13' W 076°33'1 1.8
2017-Oct-16 16:27N 39°13' W 076°35'2 3.7
2017-Oct-16 16:00N 39°15' W 076°34'1 2.5
2017-Oct-16 15:30N 39°16' W 076°34'0 0.0
2017-Oct-16 15:00N 39°16' W 076°34'0 0.0
2017-Oct-16 14:30N 39°16' W 076°34'0 0.0
2017-Oct-16 13:31N 39°16' W 076°34'0 0.0
2017-Oct-16 13:01N 39°16' W 076°34'0 0.0
2017-Oct-16 12:31N 39°16' W 076°34'0 0.0
2017-Oct-16 12:00N 39°16' W 076°34'0 0.0
2017-Oct-16 11:31N 39°16' W 076°34'0 0.0
2017-Oct-16 11:01N 39°16' W 076°34'0 0.0
2017-Oct-16 10:30N 39°16' W 076°34'0 0.0
2017-Oct-16 10:00N 39°16' W 076°34'0 0.0
2017-Oct-16 09:31N 39°16' W 076°34'0 0.0
2017-Oct-16 09:00N 39°16' W 076°34'1 1.7
2017-Oct-16 08:30N 39°15' W 076°35'0 0.8
2017-Oct-16 08:00N 39°16' W 076°36'1 2.5
2017-Oct-16 07:31N 39°15' W 076°34'1 1.5
2017-Oct-16 07:00N 39°16' W 076°34'0 0.0
2017-Oct-16 06:31N 39°16' W 076°34'0 0.0
2017-Oct-16 06:01N 39°16' W 076°34'0 0.0
2017-Oct-16 05:31N 39°16' W 076°34'0 0.0
2017-Oct-16 05:01N 39°16' W 076°34'0 0.0
2017-Oct-16 04:31N 39°16' W 076°34'0 0.0
2017-Oct-16 04:00N 39°16' W 076°34'0 0.0
2017-Oct-16 03:31N 39°16' W 076°34'0 0.0
2017-Oct-16 03:01N 39°16' W 076°34'0 0.0
2017-Oct-16 02:31N 39°16' W 076°34'0 0.0
2017-Oct-16 02:00N 39°16' W 076°34'0 0.0
2017-Oct-16 01:31N 39°16' W 076°34'0 0.0
2017-Oct-16 01:00N 39°16' W 076°34'1 1.7
2017-Oct-16 00:30N 39°15' W 076°34'1 2.0
2017-Oct-15 23:59N 39°15' W 076°32'1 2.9
2017-Oct-15 23:31N 39°15' W 076°34'0 0.0
2017-Oct-15 23:01N 39°15' W 076°34'1 1.8
2017-Oct-15 22:31N 39°15' W 076°34'2 2.5
2017-Oct-15 21:53N 39°14' W 076°33'1 0.7
2017-Oct-15 20:48N 39°14' W 076°32'0 0.0
2017-Oct-15 19:56N 39°14' W 076°32'2 5.0
2017-Oct-15 19:30N 39°15' W 076°35'0 0.7
2017-Oct-15 19:01N 39°15' W 076°34'1 2.0
2017-Oct-15 18:30N 39°15' W 076°33'1 1.6
2017-Oct-15 18:01N 39°15' W 076°34'1 1.1
2017-Oct-15 17:31N 39°16' W 076°34'0 0.0
2017-Oct-15 17:01N 39°16' W 076°34'0 0.0
2017-Oct-15 16:30N 39°16' W 076°34'0 0.0
2017-Oct-15 16:01N 39°16' W 076°34'0 0.0
2017-Oct-15 15:31N 39°16' W 076°34'0 0.0
2017-Oct-15 15:01N 39°16' W 076°34'3 2.5
2017-Oct-15 13:59N 39°13' W 076°35'0 0.1
2017-Oct-15 13:29N 39°13' W 076°35'2 3.1
2017-Oct-15 12:55N 39°13' W 076°32'1 1.0
2017-Oct-15 11:52N 39°14' W 076°32'0 0.0
2017-Oct-15 11:25N 39°14' W 076°32'0 0.6
2017-Oct-15 10:59N 39°15' W 076°32'0 0.8
2017-Oct-15 10:30N 39°15' W 076°33'1 2.5
2017-Oct-15 10:00N 39°14' W 076°32'3 3.7
2017-Oct-15 09:14N 39°16' W 076°34'0 0.0
2017-Oct-15 09:00N 39°16' W 076°34'0 0.0
2017-Oct-15 08:30N 39°16' W 076°34'0 0.0
2017-Oct-15 08:00N 39°16' W 076°34'0 0.0
2017-Oct-15 07:30N 39°16' W 076°34'0 0.0
2017-Oct-15 07:00N 39°16' W 076°34'0 0.0
2017-Oct-15 06:31N 39°16' W 076°34'0 0.0
2017-Oct-15 06:00N 39°16' W 076°34'0 0.0
2017-Oct-15 05:30N 39°16' W 076°34'0 0.0
2017-Oct-15 05:00N 39°16' W 076°34'0 0.0
2017-Oct-15 04:30N 39°16' W 076°34'0 0.0
2017-Oct-15 04:00N 39°16' W 076°34'0 0.0
2017-Oct-15 03:30N 39°16' W 076°34'0 0.0
2017-Oct-15 03:00N 39°16' W 076°34'0 0.0
2017-Oct-15 02:30N 39°16' W 076°34'0 0.0
2017-Oct-15 02:00N 39°16' W 076°34'0 0.0
2017-Oct-15 01:30N 39°16' W 076°34'0 0.9
2017-Oct-15 01:00N 39°16' W 076°34'0 0.7
2017-Oct-15 00:30N 39°15' W 076°34'2 3.4
2017-Oct-15 00:00N 39°14' W 076°33'0 0.8
2017-Oct-14 23:29N 39°14' W 076°33'2 3.5
2017-Oct-14 23:00N 39°16' W 076°34'0 0.8
2017-Oct-14 22:31N 39°15' W 076°34'0 0.7
2017-Oct-14 22:00N 39°16' W 076°34'3 5.2
2017-Oct-14 21:30N 39°13' W 076°32'3 5.1
2017-Oct-14 21:01N 39°13' W 076°29'1 1.8
2017-Oct-14 20:30N 39°12' W 076°29'0 0.6
2017-Oct-14 20:00N 39°12' W 076°29'5 4.4
2017-Oct-14 18:49N 39°15' W 076°34'0 1.5
2017-Oct-14 18:30N 39°16' W 076°34'0 0.0
2017-Oct-14 18:00N 39°16' W 076°34'0 0.0
2017-Oct-14 17:30N 39°16' W 076°34'0 0.0
2017-Oct-14 17:00N 39°16' W 076°34'0 0.0
2017-Oct-14 16:30N 39°16' W 076°34'0 0.0
2017-Oct-14 16:01N 39°16' W 076°34'0 0.0
2017-Oct-14 15:31N 39°16' W 076°34'0 0.0
2017-Oct-14 15:01N 39°16' W 076°34'0 0.0
2017-Oct-14 14:30N 39°16' W 076°34'0 0.0
2017-Oct-14 14:00N 39°16' W 076°34'0 0.0
2017-Oct-14 13:30N 39°16' W 076°34'0 0.0
2017-Oct-14 13:00N 39°16' W 076°34'0 0.0
2017-Oct-14 12:30N 39°16' W 076°34'0 0.0
2017-Oct-14 12:00N 39°16' W 076°34'0 0.0
2017-Oct-14 11:30N 39°16' W 076°34'0 0.0
2017-Oct-14 11:00N 39°16' W 076°34'0 0.0
2017-Oct-14 10:30N 39°16' W 076°34'0 0.0
2017-Oct-14 10:00N 39°16' W 076°34'1 2.4
2017-Oct-14 09:30N 39°15' W 076°33'2 3.6
2017-Oct-14 08:58N 39°13' W 076°32'2 3.6
2017-Oct-14 08:30N 39°15' W 076°34'1 2.5
2017-Oct-14 08:00N 39°16' W 076°34'0 0.0
2017-Oct-14 07:30N 39°16' W 076°34'0 0.0
2017-Oct-14 07:00N 39°16' W 076°34'0 0.0
2017-Oct-14 06:30N 39°16' W 076°34'0 0.0
2017-Oct-14 06:00N 39°16' W 076°34'0 0.0
2017-Oct-14 05:30N 39°16' W 076°34'0 0.0
2017-Oct-14 05:00N 39°16' W 076°34'0 0.0
2017-Oct-14 04:30N 39°16' W 076°34'0 0.0
2017-Oct-14 04:00N 39°16' W 076°34'0 0.0
2017-Oct-14 03:30N 39°16' W 076°34'0 0.0
2017-Oct-14 03:00N 39°16' W 076°34'0 0.0
2017-Oct-14 02:30N 39°16' W 076°34'0 0.0
2017-Oct-14 02:00N 39°16' W 076°34'0 0.1
2017-Oct-14 01:30N 39°16' W 076°34'0 0.1
2017-Oct-14 01:00N 39°16' W 076°34'0 0.0
2017-Oct-14 00:30N 39°16' W 076°34'0 0.0
2017-Oct-13 23:54N 39°16' W 076°34'0 0.0
2017-Oct-13 23:29N 39°16' W 076°34'0 0.0
2017-Oct-13 23:00N 39°16' W 076°34'0 0.0
2017-Oct-13 22:30N 39°16' W 076°34'0 0.0
2017-Oct-13 22:00N 39°16' W 076°34'0 0.0
2017-Oct-13 21:30N 39°16' W 076°34'0 0.0
2017-Oct-13 21:00N 39°16' W 076°34'0 0.0
2017-Oct-13 20:30N 39°16' W 076°34'0 0.0
2017-Oct-13 20:00N 39°16' W 076°34'0 0.0
2017-Oct-13 19:30N 39°16' W 076°34'0 0.0
2017-Oct-13 18:59N 39°16' W 076°34'3 5.3
2017-Oct-13 18:30N 39°13' W 076°34'0 0.6
2017-Oct-13 17:59N 39°13' W 076°35'2 4.3
2017-Oct-13 17:30N 39°15' W 076°34'1 1.3
2017-Oct-13 17:00N 39°15' W 076°33'1 2.7
2017-Oct-13 16:30N 39°16' W 076°34'0 0.0
2017-Oct-13 16:00N 39°16' W 076°34'0 0.0
2017-Oct-13 15:30N 39°16' W 076°34'0 0.0
2017-Oct-13 15:00N 39°16' W 076°34'0 0.0
2017-Oct-13 14:30N 39°16' W 076°34'0 0.0
2017-Oct-13 14:00N 39°16' W 076°34'0 0.0
2017-Oct-13 13:30N 39°16' W 076°34'0 0.0
2017-Oct-13 13:00N 39°16' W 076°34'0 0.0
2017-Oct-13 12:30N 39°16' W 076°34'0 0.0
2017-Oct-13 12:00N 39°16' W 076°34'0 0.0
2017-Oct-13 11:30N 39°16' W 076°34'0 0.0
2017-Oct-13 11:00N 39°16' W 076°34'0 1.0
2017-Oct-13 10:30N 39°15' W 076°34'1 2.5
2017-Oct-13 10:00N 39°15' W 076°33'1 2.2
2017-Oct-13 09:30N 39°14' W 076°33'2 4.2
2017-Oct-13 09:00N 39°16' W 076°34'0 0.1
2017-Oct-13 08:30N 39°16' W 076°34'0 0.9
2017-Oct-13 08:00N 39°15' W 076°34'0 0.0
2017-Oct-13 07:30N 39°15' W 076°34'0 0.0
2017-Oct-13 07:00N 39°15' W 076°34'1 1.3
2017-Oct-13 06:30N 39°15' W 076°33'1 1.3
2017-Oct-13 06:00N 39°15' W 076°32'1 1.4
2017-Oct-13 05:30N 39°15' W 076°32'0 0.0
2017-Oct-13 05:00N 39°15' W 076°32'1 1.9
2017-Oct-13 04:30N 39°15' W 076°33'1 1.2
2017-Oct-13 04:00N 39°15' W 076°33'1 2.4
2017-Oct-13 03:30N 39°16' W 076°34'0 0.7
2017-Oct-13 03:00N 39°15' W 076°34'3 5.3
2017-Oct-13 02:30N 39°13' W 076°32'3 2.4
2017-Oct-13 01:22N 39°12' W 076°29'0 0.0
2017-Oct-13 00:57N 39°12' W 076°29'0 0.5
2017-Oct-12 23:55N 39°12' W 076°29'410.3
2017-Oct-12 23:30N 39°15' W 076°33'1 2.0
2017-Oct-12 23:00N 39°16' W 076°34'0 0.3
2017-Oct-12 22:30N 39°15' W 076°34'0 0.0
2017-Oct-12 22:00N 39°15' W 076°34'0 0.3
2017-Oct-12 21:31N 39°15' W 076°34'1 1.3
2017-Oct-12 21:00N 39°16' W 076°34'0 0.0
2017-Oct-12 20:30N 39°16' W 076°34'0 0.0
2017-Oct-12 20:00N 39°16' W 076°34'0 0.0
2017-Oct-12 19:30N 39°16' W 076°34'0 0.0
2017-Oct-12 19:00N 39°16' W 076°34'0 0.0
2017-Oct-12 18:30N 39°16' W 076°34'1 1.2
2017-Oct-12 18:00N 39°15' W 076°34'1 2.6
2017-Oct-12 17:30N 39°15' W 076°32'1 2.7
2017-Oct-12 17:00N 39°15' W 076°34'0 0.1
2017-Oct-12 16:30N 39°15' W 076°34'0 0.0
2017-Oct-12 16:00N 39°15' W 076°34'1 1.9
2017-Oct-12 15:29N 39°14' W 076°33'1 1.5
2017-Oct-12 15:00N 39°15' W 076°34'1 2.5
2017-Oct-12 14:30N 39°16' W 076°34'0 0.0
2017-Oct-12 14:00N 39°16' W 076°34'0 0.0
2017-Oct-12 13:30N 39°16' W 076°34'0 0.0
2017-Oct-12 13:00N 39°16' W 076°34'0 0.0
2017-Oct-12 12:30N 39°16' W 076°34'0 0.0
2017-Oct-12 12:00N 39°16' W 076°34'0 0.0
2017-Oct-12 11:30N 39°16' W 076°34'1 1.7
2017-Oct-12 11:00N 39°15' W 076°34'0 0.9
2017-Oct-12 10:30N 39°15' W 076°33'2 3.0
2017-Oct-12 10:00N 39°14' W 076°33'1 1.8
2017-Oct-12 09:30N 39°14' W 076°33'1 1.1
2017-Oct-12 09:01N 39°15' W 076°34'1 1.3
2017-Oct-12 08:30N 39°15' W 076°35'0 0.3
2017-Oct-12 08:00N 39°15' W 076°35'0 0.0
2017-Oct-12 07:30N 39°15' W 076°35'0 0.0
2017-Oct-12 07:00N 39°15' W 076°35'2 3.2
2017-Oct-12 06:30N 39°14' W 076°33'1 2.8
2017-Oct-12 06:00N 39°13' W 076°35'1 2.6
2017-Oct-12 05:30N 39°13' W 076°33'1 2.0
2017-Oct-12 04:59N 39°14' W 076°33'1 2.8
2017-Oct-12 04:29N 39°13' W 076°34'0 0.4
2017-Oct-12 04:00N 39°13' W 076°35'1 2.4
2017-Oct-12 03:30N 39°14' W 076°33'1 2.3
2017-Oct-12 03:00N 39°15' W 076°34'1 2.8
2017-Oct-12 02:30N 39°16' W 076°34'0 0.0
2017-Oct-12 02:00N 39°16' W 076°34'0 0.0
2017-Oct-12 01:30N 39°16' W 076°34'0 0.0
2017-Oct-12 01:00N 39°16' W 076°34'0 0.0
2017-Oct-12 00:30N 39°16' W 076°34'0 0.0
2017-Oct-12 00:00N 39°16' W 076°34'0 0.0
2017-Oct-11 23:30N 39°16' W 076°34'0 0.0
2017-Oct-11 23:00N 39°16' W 076°34'0 0.5
2017-Oct-11 22:30N 39°16' W 076°34'1 1.6
2017-Oct-11 22:00N 39°16' W 076°35'0 0.0
2017-Oct-11 21:30N 39°16' W 076°35'0 0.0
2017-Oct-11 21:00N 39°16' W 076°35'3 5.7
2017-Oct-11 20:30N 39°14' W 076°32'1 1.1
2017-Oct-11 20:00N 39°15' W 076°31'0 0.0
2017-Oct-11 19:30N 39°15' W 076°31'0 0.0
2017-Oct-11 19:00N 39°15' W 076°31'1 2.5
2017-Oct-11 18:30N 39°13' W 076°32'2 4.2
2017-Oct-11 17:57N 39°13' W 076°29'0 0.1
2017-Oct-11 17:30N 39°13' W 076°29'3 6.3
2017-Oct-11 17:01N 39°14' W 076°33'2 0.1
2017-Oct-11 00:01N 39°16' W 076°34'0 0.0
2017-Oct-10 23:30N 39°16' W 076°34'0 0.0
2017-Oct-10 23:01N 39°16' W 076°34'0 0.1
2017-Oct-10 22:30N 39°16' W 076°34'0 0.7
2017-Oct-10 22:01N 39°16' W 076°34'0 0.6
2017-Oct-10 21:30N 39°16' W 076°34'0 0.0
2017-Oct-10 21:01N 39°16' W 076°34'0 0.0
2017-Oct-10 20:31N 39°16' W 076°34'0 0.0
2017-Oct-10 20:01N 39°16' W 076°34'0 0.0
2017-Oct-10 19:31N 39°16' W 076°34'0 0.0
2017-Oct-10 19:00N 39°16' W 076°34'0 0.0
2017-Oct-10 18:30N 39°16' W 076°34'0 0.0
2017-Oct-10 18:00N 39°16' W 076°34'0 0.0
2017-Oct-10 17:30N 39°16' W 076°34'0 0.0
2017-Oct-10 17:00N 39°16' W 076°34'0 0.0
2017-Oct-10 16:30N 39°16' W 076°34'0 0.0
2017-Oct-10 16:00N 39°16' W 076°34'0 0.0
2017-Oct-10 15:30N 39°16' W 076°34'0 0.0
2017-Oct-10 15:01N 39°16' W 076°34'1 0.7
2017-Oct-10 14:01N 39°15' W 076°34'1 1.9
2017-Oct-10 13:30N 39°15' W 076°33'0 0.9
2017-Oct-10 13:01N 39°15' W 076°32'0 0.0
2017-Oct-10 12:30N 39°15' W 076°32'1 2.6
2017-Oct-10 12:00N 39°15' W 076°34'0 0.9
2017-Oct-10 11:30N 39°15' W 076°33'1 2.3
2017-Oct-10 11:01N 39°14' W 076°32'1 1.2
2017-Oct-10 10:31N 39°14' W 076°32'0 0.0
2017-Oct-10 10:01N 39°14' W 076°32'0 0.0
2017-Oct-10 09:30N 39°14' W 076°32'0 0.0
2017-Oct-10 09:01N 39°14' W 076°32'0 0.0
2017-Oct-10 08:31N 39°14' W 076°32'0 0.7
2017-Oct-10 08:00N 39°14' W 076°32'1 1.1
2017-Oct-10 07:30N 39°14' W 076°32'1 1.4
2017-Oct-10 07:00N 39°13' W 076°32'1 1.9
2017-Oct-10 06:30N 39°14' W 076°32'0 0.0
2017-Oct-10 06:00N 39°14' W 076°32'0 0.0
2017-Oct-10 05:31N 39°14' W 076°32'0 0.0
2017-Oct-10 05:00N 39°14' W 076°32'0 0.0
2017-Oct-10 04:31N 39°14' W 076°32'0 0.0
2017-Oct-10 04:00N 39°14' W 076°32'1 2.2
2017-Oct-10 03:30N 39°15' W 076°33'1 1.2
2017-Oct-10 03:00N 39°15' W 076°33'2 4.7
2017-Oct-10 02:30N 39°13' W 076°35'0 0.1
2017-Oct-10 02:00N 39°13' W 076°35'1 2.2
2017-Oct-10 01:31N 39°13' W 076°33'1 2.0
2017-Oct-10 01:01N 39°13' W 076°32'3 5.4
2017-Oct-10 00:30N 39°15' W 076°35'1 1.7
2017-Oct-10 00:01N 39°16' W 076°36'2 3.7
2017-Oct-09 23:30N 39°15' W 076°33'2 3.4
2017-Oct-09 22:59N 39°13' W 076°32'3 3.2
2017-Oct-09 22:11N 39°13' W 076°29'2 3.2
2017-Oct-09 21:38N 39°13' W 076°31'2 8.6
2017-Oct-09 21:21N 39°14' W 076°33'2 5.0
2017-Oct-09 21:00N 39°16' W 076°34'0 0.0
2017-Oct-09 20:31N 39°16' W 076°34'0 0.0
2017-Oct-09 20:00N 39°16' W 076°34'0 0.0
2017-Oct-09 19:31N 39°16' W 076°34'0 0.0
2017-Oct-09 19:01N 39°16' W 076°34'0 0.0
2017-Oct-09 18:31N 39°16' W 076°34'0 0.0
2017-Oct-09 18:01N 39°16' W 076°34'0 0.0
2017-Oct-09 17:31N 39°16' W 076°34'1 1.9
2017-Oct-09 17:01N 39°15' W 076°35'1 2.1
2017-Oct-09 16:23N 39°15' W 076°33'  
Track history (hours):
 
Tides and Currents Weather Stations Pressure Air Temp Water Temp Dewpoint Dewpoint Depression Visibility Wind Speed Wind Dir Waves Ship Positions

April Moran

Owner: Moran Towing Corporation, New Canaan, CT. More information available from US FCC via Universal Licensing System and Coast Guard Vessel Documentation Center.

Last reported at 2017-Oct-19 16:00 UTC. Time now 2017-Oct-19 16:14 UTC.
Position N 39°17' W 076°36'.

Length 29 m; draft 3.9 m.

Type: Tug. MMSI: 367139510.

Date/timePositionNaut miles runAvg speedWind from/ knotsBaromVisibWave heightAir tempDewpointWater temp
2017-Oct-19 16:00N 39°17' W 076°36'1 2.5
2017-Oct-19 15:30N 39°16' W 076°34'0 0.0
2017-Oct-19 15:00N 39°16' W 076°34'0 0.0
2017-Oct-19 14:30N 39°16' W 076°34'0 0.0
2017-Oct-19 14:00N 39°16' W 076°34'1 2.5
2017-Oct-19 13:30N 39°15' W 076°33'2 4.8
2017-Oct-19 13:00N 39°13' W 076°32'1 2.6
2017-Oct-19 12:30N 39°13' W 076°30'0 0.7
2017-Oct-19 12:00N 39°13' W 076°30'1 1.9
2017-Oct-19 11:30N 39°12' W 076°31'2 3.4
2017-Oct-19 11:00N 39°12' W 076°29'0 0.8
2017-Oct-19 10:28N 39°12' W 076°29'0 0.0
2017-Oct-19 10:00N 39°12' W 076°29'0 0.0
2017-Oct-19 09:30N 39°12' W 076°29'0 0.0
2017-Oct-19 09:00N 39°12' W 076°29'0 0.0
2017-Oct-19 08:30N 39°12' W 076°29'5 2.1
2017-Oct-19 06:13N 39°16' W 076°33'0 0.2
2017-Oct-19 05:59N 39°16' W 076°33'0 0.4
2017-Oct-19 05:30N 39°15' W 076°33'0 0.0
2017-Oct-19 05:00N 39°15' W 076°33'0 0.0
2017-Oct-19 04:30N 39°15' W 076°33'2 3.0
2017-Oct-19 04:00N 39°14' W 076°32'1 1.8
2017-Oct-19 03:30N 39°14' W 076°32'0 1.0
2017-Oct-19 03:01N 39°13' W 076°32'2 3.6
2017-Oct-19 02:30N 39°15' W 076°32'0 0.2
2017-Oct-19 02:00N 39°15' W 076°32'2 3.5
2017-Oct-19 01:31N 39°16' W 076°34'0 0.0
2017-Oct-19 01:01N 39°16' W 076°34'0 0.0
2017-Oct-19 00:31N 39°16' W 076°34'0 0.0
2017-Oct-19 00:01N 39°16' W 076°34'0 0.0
2017-Oct-18 23:31N 39°16' W 076°34'0 0.0
2017-Oct-18 23:01N 39°16' W 076°34'0 0.0
2017-Oct-18 22:30N 39°16' W 076°34'1 2.1
2017-Oct-18 22:01N 39°16' W 076°36'2 3.5
2017-Oct-18 21:30N 39°15' W 076°34'0 1.0
2017-Oct-18 21:01N 39°15' W 076°33'1 1.5
2017-Oct-18 20:30N 39°14' W 076°33'2 4.5
2017-Oct-18 20:01N 39°16' W 076°34'0 0.0
2017-Oct-18 19:30N 39°16' W 076°34'0 0.0
2017-Oct-18 19:00N 39°16' W 076°34'0 0.0
2017-Oct-18 18:30N 39°16' W 076°34'0 0.0
2017-Oct-18 18:00N 39°16' W 076°34'0 0.0
2017-Oct-18 17:30N 39°16' W 076°34'0 0.0
2017-Oct-18 17:00N 39°16' W 076°34'0 0.0
2017-Oct-18 16:30N 39°16' W 076°34'0 0.0
2017-Oct-18 16:00N 39°16' W 076°34'0 0.0
2017-Oct-18 15:30N 39°16' W 076°34'0 0.0
2017-Oct-18 15:00N 39°16' W 076°34'0 0.0
2017-Oct-18 14:00N 39°16' W 076°34'0 0.0
2017-Oct-18 13:30N 39°16' W 076°34'0 0.0
2017-Oct-18 13:00N 39°16' W 076°34'0 0.0
2017-Oct-18 12:30N 39°16' W 076°34'0 0.0
2017-Oct-18 12:00N 39°16' W 076°34'0 0.0
2017-Oct-18 11:30N 39°16' W 076°34'0 0.0
2017-Oct-18 11:00N 39°16' W 076°34'0 0.0
2017-Oct-18 10:30N 39°16' W 076°34'0 0.0
2017-Oct-18 10:00N 39°16' W 076°34'0 0.0
2017-Oct-18 09:30N 39°16' W 076°34'0 0.0
2017-Oct-18 09:00N 39°16' W 076°34'0 0.0
2017-Oct-18 08:30N 39°16' W 076°34'0 0.0
2017-Oct-18 08:00N 39°16' W 076°34'0 0.0
2017-Oct-18 07:30N 39°16' W 076°34'0 0.0
2017-Oct-18 07:00N 39°16' W 076°34'0 0.0
2017-Oct-18 06:30N 39°16' W 076°34'0 0.0
2017-Oct-18 06:00N 39°16' W 076°34'0 0.0
2017-Oct-18 05:30N 39°16' W 076°34'0 0.0
2017-Oct-18 05:00N 39°16' W 076°34'0 0.0
2017-Oct-18 04:30N 39°16' W 076°34'0 0.0
2017-Oct-18 04:00N 39°16' W 076°34'0 0.0
2017-Oct-18 03:30N 39°16' W 076°34'0 0.0
2017-Oct-18 03:00N 39°16' W 076°34'0 1.0
2017-Oct-18 02:31N 39°15' W 076°34'0 0.4
2017-Oct-18 02:01N 39°15' W 076°34'2 3.1
2017-Oct-18 01:29N 39°14' W 076°33'1 1.8
2017-Oct-18 01:00N 39°15' W 076°32'0 0.0
2017-Oct-18 00:31N 39°15' W 076°32'0 0.0
2017-Oct-17 23:58N 39°15' W 076°32'0 0.8
2017-Oct-17 23:30N 39°15' W 076°32'1 2.0
2017-Oct-17 23:00N 39°14' W 076°33'2 3.2
2017-Oct-17 22:30N 39°16' W 076°34'0 0.0
2017-Oct-17 22:00N 39°16' W 076°34'0 0.0
2017-Oct-17 21:30N 39°16' W 076°34'0 0.0
2017-Oct-17 21:00N 39°16' W 076°34'0 0.0
2017-Oct-17 20:30N 39°16' W 076°34'0 0.0
2017-Oct-17 20:00N 39°16' W 076°34'0 0.0
2017-Oct-17 19:30N 39°16' W 076°34'0 0.0
2017-Oct-17 19:00N 39°16' W 076°34'0 0.0
2017-Oct-17 18:30N 39°16' W 076°34'1 1.3
2017-Oct-17 18:00N 39°15' W 076°34'0 0.3
2017-Oct-17 17:30N 39°15' W 076°34'1 1.1
2017-Oct-17 17:00N 39°16' W 076°34'0 0.0
2017-Oct-17 16:30N 39°16' W 076°34'0 0.0
2017-Oct-17 16:00N 39°16' W 076°34'0 0.0
2017-Oct-17 15:30N 39°16' W 076°34'0 0.0
2017-Oct-17 15:00N 39°16' W 076°34'0 0.0
2017-Oct-17 14:30N 39°16' W 076°34'0 0.0
2017-Oct-17 14:00N 39°16' W 076°34'0 0.0
2017-Oct-17 13:30N 39°16' W 076°34'0 0.0
2017-Oct-17 13:00N 39°16' W 076°34'0 0.0
2017-Oct-17 12:30N 39°16' W 076°34'0 0.0
2017-Oct-17 12:00N 39°16' W 076°34'0 0.0
2017-Oct-17 11:30N 39°16' W 076°34'0 0.0
2017-Oct-17 11:00N 39°16' W 076°34'0 0.0
2017-Oct-17 10:30N 39°16' W 076°34'1 1.5
2017-Oct-17 10:00N 39°15' W 076°34'1 1.4
2017-Oct-17 09:30N 39°15' W 076°33'1 2.9
2017-Oct-17 09:00N 39°14' W 076°33'2 4.9
2017-Oct-17 08:30N 39°16' W 076°34'0 0.0
2017-Oct-17 08:00N 39°16' W 076°34'0 0.0
2017-Oct-17 07:30N 39°16' W 076°34'0 0.0
2017-Oct-17 07:00N 39°16' W 076°34'0 0.0
2017-Oct-17 06:30N 39°16' W 076°34'0 0.0
2017-Oct-17 06:00N 39°16' W 076°34'0 0.0
2017-Oct-17 05:30N 39°16' W 076°34'0 0.0
2017-Oct-17 05:00N 39°16' W 076°34'0 0.0
2017-Oct-17 04:30N 39°16' W 076°34'0 0.0
2017-Oct-17 04:00N 39°16' W 076°34'0 0.0
2017-Oct-17 03:30N 39°16' W 076°34'0 0.0
2017-Oct-17 03:00N 39°16' W 076°34'0 0.0
2017-Oct-17 02:30N 39°16' W 076°34'0 0.0
2017-Oct-17 02:00N 39°16' W 076°34'0 0.0
2017-Oct-17 01:30N 39°16' W 076°34'0 0.0
2017-Oct-17 01:00N 39°16' W 076°34'0 0.0
2017-Oct-17 00:30N 39°16' W 076°34'0 0.0
2017-Oct-17 00:00N 39°16' W 076°34'0 0.0
2017-Oct-16 23:30N 39°16' W 076°34'0 0.0
2017-Oct-16 23:00N 39°16' W 076°34'0 0.0
2017-Oct-16 22:30N 39°16' W 076°34'0 0.0
2017-Oct-16 22:00N 39°16' W 076°34'0 0.0
2017-Oct-16 21:30N 39°16' W 076°34'0 0.0
2017-Oct-16 21:00N 39°16' W 076°34'0 0.0
2017-Oct-16 20:30N 39°16' W 076°34'0 0.0
2017-Oct-16 20:00N 39°16' W 076°34'0 0.0
2017-Oct-16 19:30N 39°16' W 076°34'0 0.0
2017-Oct-16 19:00N 39°16' W 076°34'0 0.0
2017-Oct-16 18:30N 39°16' W 076°34'0 0.0
2017-Oct-16 18:00N 39°16' W 076°34'0 0.0
2017-Oct-16 17:30N 39°16' W 076°34'3 5.1
2017-Oct-16 17:00N 39°13' W 076°33'1 1.8
2017-Oct-16 16:27N 39°13' W 076°35'2 3.7
2017-Oct-16 16:00N 39°15' W 076°34'1 2.5
2017-Oct-16 15:30N 39°16' W 076°34'0 0.0
2017-Oct-16 15:00N 39°16' W 076°34'0 0.0
2017-Oct-16 14:30N 39°16' W 076°34'0 0.0
2017-Oct-16 13:31N 39°16' W 076°34'0 0.0
2017-Oct-16 13:01N 39°16' W 076°34'0 0.0
2017-Oct-16 12:31N 39°16' W 076°34'0 0.0
2017-Oct-16 12:00N 39°16' W 076°34'0 0.0
2017-Oct-16 11:31N 39°16' W 076°34'0 0.0
2017-Oct-16 11:01N 39°16' W 076°34'0 0.0
2017-Oct-16 10:30N 39°16' W 076°34'0 0.0
2017-Oct-16 10:00N 39°16' W 076°34'0 0.0
2017-Oct-16 09:31N 39°16' W 076°34'0 0.0
2017-Oct-16 09:00N 39°16' W 076°34'1 1.7
2017-Oct-16 08:30N 39°15' W 076°35'0 0.8
2017-Oct-16 08:00N 39°16' W 076°36'1 2.5
2017-Oct-16 07:31N 39°15' W 076°34'1 1.5
2017-Oct-16 07:00N 39°16' W 076°34'0 0.0
2017-Oct-16 06:31N 39°16' W 076°34'0 0.0
2017-Oct-16 06:01N 39°16' W 076°34'0 0.0
2017-Oct-16 05:31N 39°16' W 076°34'0 0.0
2017-Oct-16 05:01N 39°16' W 076°34'0 0.0
2017-Oct-16 04:31N 39°16' W 076°34'0 0.0
2017-Oct-16 04:00N 39°16' W 076°34'0 0.0
2017-Oct-16 03:31N 39°16' W 076°34'0 0.0
2017-Oct-16 03:01N 39°16' W 076°34'0 0.0
2017-Oct-16 02:31N 39°16' W 076°34'0 0.0
2017-Oct-16 02:00N 39°16' W 076°34'0 0.0
2017-Oct-16 01:31N 39°16' W 076°34'0 0.0
2017-Oct-16 01:00N 39°16' W 076°34'1 1.7
2017-Oct-16 00:30N 39°15' W 076°34'1 2.0
2017-Oct-15 23:59N 39°15' W 076°32'1 2.9
2017-Oct-15 23:31N 39°15' W 076°34'0 0.0
2017-Oct-15 23:01N 39°15' W 076°34'1 1.8
2017-Oct-15 22:31N 39°15' W 076°34'2 2.5
2017-Oct-15 21:53N 39°14' W 076°33'1 0.7
2017-Oct-15 20:48N 39°14' W 076°32'0 0.0
2017-Oct-15 19:56N 39°14' W 076°32'2 5.0
2017-Oct-15 19:30N 39°15' W 076°35'0 0.7
2017-Oct-15 19:01N 39°15' W 076°34'1 2.0
2017-Oct-15 18:30N 39°15' W 076°33'1 1.6
2017-Oct-15 18:01N 39°15' W 076°34'1 1.1
2017-Oct-15 17:31N 39°16' W 076°34'0 0.0
2017-Oct-15 17:01N 39°16' W 076°34'0 0.0
2017-Oct-15 16:30N 39°16' W 076°34'0 0.0
2017-Oct-15 16:01N 39°16' W 076°34'0 0.0
2017-Oct-15 15:31N 39°16' W 076°34'0 0.0
2017-Oct-15 15:01N 39°16' W 076°34'3 2.5
2017-Oct-15 13:59N 39°13' W 076°35'0 0.1
2017-Oct-15 13:29N 39°13' W 076°35'2 3.1
2017-Oct-15 12:55N 39°13' W 076°32'1 1.0
2017-Oct-15 11:52N 39°14' W 076°32'0 0.0
2017-Oct-15 11:25N 39°14' W 076°32'0 0.6
2017-Oct-15 10:59N 39°15' W 076°32'0 0.8
2017-Oct-15 10:30N 39°15' W 076°33'1 2.5
2017-Oct-15 10:00N 39°14' W 076°32'3 3.7
2017-Oct-15 09:14N 39°16' W 076°34'0 0.0
2017-Oct-15 09:00N 39°16' W 076°34'0 0.0
2017-Oct-15 08:30N 39°16' W 076°34'0 0.0
2017-Oct-15 08:00N 39°16' W 076°34'0 0.0
2017-Oct-15 07:30N 39°16' W 076°34'0 0.0
2017-Oct-15 07:00N 39°16' W 076°34'0 0.0
2017-Oct-15 06:31N 39°16' W 076°34'0 0.0
2017-Oct-15 06:00N 39°16' W 076°34'0 0.0
2017-Oct-15 05:30N 39°16' W 076°34'0 0.0
2017-Oct-15 05:00N 39°16' W 076°34'0 0.0
2017-Oct-15 04:30N 39°16' W 076°34'0 0.0
2017-Oct-15 04:00N 39°16' W 076°34'0 0.0
2017-Oct-15 03:30N 39°16' W 076°34'0 0.0
2017-Oct-15 03:00N 39°16' W 076°34'0 0.0
2017-Oct-15 02:30N 39°16' W 076°34'0 0.0
2017-Oct-15 02:00N 39°16' W 076°34'0 0.0
2017-Oct-15 01:30N 39°16' W 076°34'0 0.9
2017-Oct-15 01:00N 39°16' W 076°34'0 0.7
2017-Oct-15 00:30N 39°15' W 076°34'2 3.4
2017-Oct-15 00:00N 39°14' W 076°33'0 0.8
2017-Oct-14 23:29N 39°14' W 076°33'2 3.5
2017-Oct-14 23:00N 39°16' W 076°34'0 0.8
2017-Oct-14 22:31N 39°15' W 076°34'0 0.7
2017-Oct-14 22:00N 39°16' W 076°34'3 5.2
2017-Oct-14 21:30N 39°13' W 076°32'3 5.1
2017-Oct-14 21:01N 39°13' W 076°29'1 1.8
2017-Oct-14 20:30N 39°12' W 076°29'0 0.6
2017-Oct-14 20:00N 39°12' W 076°29'5 4.4
2017-Oct-14 18:49N 39°15' W 076°34'0 1.5
2017-Oct-14 18:30N 39°16' W 076°34'0 0.0
2017-Oct-14 18:00N 39°16' W 076°34'0 0.0
2017-Oct-14 17:30N 39°16' W 076°34'0 0.0
2017-Oct-14 17:00N 39°16' W 076°34'0 0.0
2017-Oct-14 16:30N 39°16' W 076°34'0 0.0
2017-Oct-14 16:01N 39°16' W 076°34'0 0.0
2017-Oct-14 15:31N 39°16' W 076°34'0 0.0
2017-Oct-14 15:01N 39°16' W 076°34'0 0.0
2017-Oct-14 14:30N 39°16' W 076°34'0 0.0
2017-Oct-14 14:00N 39°16' W 076°34'0 0.0
2017-Oct-14 13:30N 39°16' W 076°34'0 0.0
2017-Oct-14 13:00N 39°16' W 076°34'0 0.0
2017-Oct-14 12:30N 39°16' W 076°34'0 0.0
2017-Oct-14 12:00N 39°16' W 076°34'0 0.0
2017-Oct-14 11:30N 39°16' W 076°34'0 0.0
2017-Oct-14 11:00N 39°16' W 076°34'0 0.0
2017-Oct-14 10:30N 39°16' W 076°34'0 0.0
2017-Oct-14 10:00N 39°16' W 076°34'1 2.4
2017-Oct-14 09:30N 39°15' W 076°33'2 3.6
2017-Oct-14 08:58N 39°13' W 076°32'2 3.6
2017-Oct-14 08:30N 39°15' W 076°34'1 2.5
2017-Oct-14 08:00N 39°16' W 076°34'0 0.0
2017-Oct-14 07:30N 39°16' W 076°34'0 0.0
2017-Oct-14 07:00N 39°16' W 076°34'0 0.0
2017-Oct-14 06:30N 39°16' W 076°34'0 0.0
2017-Oct-14 06:00N 39°16' W 076°34'0 0.0
2017-Oct-14 05:30N 39°16' W 076°34'0 0.0
2017-Oct-14 05:00N 39°16' W 076°34'0 0.0
2017-Oct-14 04:30N 39°16' W 076°34'0 0.0
2017-Oct-14 04:00N 39°16' W 076°34'0 0.0
2017-Oct-14 03:30N 39°16' W 076°34'0 0.0
2017-Oct-14 03:00N 39°16' W 076°34'0 0.0
2017-Oct-14 02:30N 39°16' W 076°34'0 0.0
2017-Oct-14 02:00N 39°16' W 076°34'0 0.1
2017-Oct-14 01:30N 39°16' W 076°34'0 0.1
2017-Oct-14 01:00N 39°16' W 076°34'0 0.0
2017-Oct-14 00:30N 39°16' W 076°34'0 0.0
2017-Oct-13 23:54N 39°16' W 076°34'0 0.0
2017-Oct-13 23:29N 39°16' W 076°34'0 0.0
2017-Oct-13 23:00N 39°16' W 076°34'0 0.0
2017-Oct-13 22:30N 39°16' W 076°34'0 0.0
2017-Oct-13 22:00N 39°16' W 076°34'0 0.0
2017-Oct-13 21:30N 39°16' W 076°34'0 0.0
2017-Oct-13 21:00N 39°16' W 076°34'0 0.0
2017-Oct-13 20:30N 39°16' W 076°34'0 0.0
2017-Oct-13 20:00N 39°16' W 076°34'0 0.0
2017-Oct-13 19:30N 39°16' W 076°34'0 0.0
2017-Oct-13 18:59N 39°16' W 076°34'3 5.3
2017-Oct-13 18:30N 39°13' W 076°34'0 0.6
2017-Oct-13 17:59N 39°13' W 076°35'2 4.3
2017-Oct-13 17:30N 39°15' W 076°34'1 1.3
2017-Oct-13 17:00N 39°15' W 076°33'1 2.7
2017-Oct-13 16:30N 39°16' W 076°34'0 0.0
2017-Oct-13 16:00N 39°16' W 076°34'0 0.0
2017-Oct-13 15:30N 39°16' W 076°34'0 0.0
2017-Oct-13 15:00N 39°16' W 076°34'0 0.0
2017-Oct-13 14:30N 39°16' W 076°34'0 0.0
2017-Oct-13 14:00N 39°16' W 076°34'0 0.0
2017-Oct-13 13:30N 39°16' W 076°34'0 0.0
2017-Oct-13 13:00N 39°16' W 076°34'0 0.0
2017-Oct-13 12:30N 39°16' W 076°34'0 0.0
2017-Oct-13 12:00N 39°16' W 076°34'0 0.0
2017-Oct-13 11:30N 39°16' W 076°34'0 0.0
2017-Oct-13 11:00N 39°16' W 076°34'0 1.0
2017-Oct-13 10:30N 39°15' W 076°34'1 2.5
2017-Oct-13 10:00N 39°15' W 076°33'1 2.2
2017-Oct-13 09:30N 39°14' W 076°33'2 4.2
2017-Oct-13 09:00N 39°16' W 076°34'0 0.1
2017-Oct-13 08:30N 39°16' W 076°34'0 0.9
2017-Oct-13 08:00N 39°15' W 076°34'0 0.0
2017-Oct-13 07:30N 39°15' W 076°34'0 0.0
2017-Oct-13 07:00N 39°15' W 076°34'1 1.3
2017-Oct-13 06:30N 39°15' W 076°33'1 1.3
2017-Oct-13 06:00N 39°15' W 076°32'1 1.4
2017-Oct-13 05:30N 39°15' W 076°32'0 0.0
2017-Oct-13 05:00N 39°15' W 076°32'1 1.9
2017-Oct-13 04:30N 39°15' W 076°33'1 1.2
2017-Oct-13 04:00N 39°15' W 076°33'1 2.4
2017-Oct-13 03:30N 39°16' W 076°34'0 0.7
2017-Oct-13 03:00N 39°15' W 076°34'3 5.3
2017-Oct-13 02:30N 39°13' W 076°32'3 2.4
2017-Oct-13 01:22N 39°12' W 076°29'0 0.0
2017-Oct-13 00:57N 39°12' W 076°29'0 0.5
2017-Oct-12 23:55N 39°12' W 076°29'410.3
2017-Oct-12 23:30N 39°15' W 076°33'1 2.0
2017-Oct-12 23:00N 39°16' W 076°34'0 0.3
2017-Oct-12 22:30N 39°15' W 076°34'0 0.0
2017-Oct-12 22:00N 39°15' W 076°34'0 0.3
2017-Oct-12 21:31N 39°15' W 076°34'1 1.3
2017-Oct-12 21:00N 39°16' W 076°34'0 0.0
2017-Oct-12 20:30N 39°16' W 076°34'0 0.0
2017-Oct-12 20:00N 39°16' W 076°34'0 0.0
2017-Oct-12 19:30N 39°16' W 076°34'0 0.0
2017-Oct-12 19:00N 39°16' W 076°34'0 0.0
2017-Oct-12 18:30N 39°16' W 076°34'1 1.2
2017-Oct-12 18:00N 39°15' W 076°34'1 2.6
2017-Oct-12 17:30N 39°15' W 076°32'1 2.7
2017-Oct-12 17:00N 39°15' W 076°34'0 0.1
2017-Oct-12 16:30N 39°15' W 076°34'0 0.0
2017-Oct-12 16:00N 39°15' W 076°34'1 1.9
2017-Oct-12 15:29N 39°14' W 076°33'1 1.5
2017-Oct-12 15:00N 39°15' W 076°34'1 2.5
2017-Oct-12 14:30N 39°16' W 076°34'0 0.0
2017-Oct-12 14:00N 39°16' W 076°34'0 0.0
2017-Oct-12 13:30N 39°16' W 076°34'0 0.0
2017-Oct-12 13:00N 39°16' W 076°34'0 0.0
2017-Oct-12 12:30N 39°16' W 076°34'0 0.0
2017-Oct-12 12:00N 39°16' W 076°34'0 0.0
2017-Oct-12 11:30N 39°16' W 076°34'1 1.7
2017-Oct-12 11:00N 39°15' W 076°34'0 0.9
2017-Oct-12 10:30N 39°15' W 076°33'2 3.0
2017-Oct-12 10:00N 39°14' W 076°33'1 1.8
2017-Oct-12 09:30N 39°14' W 076°33'1 1.1
2017-Oct-12 09:01N 39°15' W 076°34'1 1.3
2017-Oct-12 08:30N 39°15' W 076°35'0 0.3
2017-Oct-12 08:00N 39°15' W 076°35'0 0.0
2017-Oct-12 07:30N 39°15' W 076°35'0 0.0
2017-Oct-12 07:00N 39°15' W 076°35'2 3.2
2017-Oct-12 06:30N 39°14' W 076°33'1 2.8
2017-Oct-12 06:00N 39°13' W 076°35'1 2.6
2017-Oct-12 05:30N 39°13' W 076°33'1 2.0
2017-Oct-12 04:59N 39°14' W 076°33'1 2.8
2017-Oct-12 04:29N 39°13' W 076°34'0 0.4
2017-Oct-12 04:00N 39°13' W 076°35'1 2.4
2017-Oct-12 03:30N 39°14' W 076°33'1 2.3
2017-Oct-12 03:00N 39°15' W 076°34'1 2.8
2017-Oct-12 02:30N 39°16' W 076°34'0 0.0
2017-Oct-12 02:00N 39°16' W 076°34'0 0.0
2017-Oct-12 01:30N 39°16' W 076°34'0 0.0
2017-Oct-12 01:00N 39°16' W 076°34'0 0.0
2017-Oct-12 00:30N 39°16' W 076°34'0 0.0
2017-Oct-12 00:00N 39°16' W 076°34'0 0.0
2017-Oct-11 23:30N 39°16' W 076°34'0 0.0
2017-Oct-11 23:00N 39°16' W 076°34'0 0.5
2017-Oct-11 22:30N 39°16' W 076°34'1 1.6
2017-Oct-11 22:00N 39°16' W 076°35'0 0.0
2017-Oct-11 21:30N 39°16' W 076°35'0 0.0
2017-Oct-11 21:00N 39°16' W 076°35'3 5.7
2017-Oct-11 20:30N 39°14' W 076°32'1 1.1
2017-Oct-11 20:00N 39°15' W 076°31'0 0.0
2017-Oct-11 19:30N 39°15' W 076°31'0 0.0
2017-Oct-11 19:00N 39°15' W 076°31'1 2.5
2017-Oct-11 18:30N 39°13' W 076°32'2 4.2
2017-Oct-11 17:57N 39°13' W 076°29'0 0.1
2017-Oct-11 17:30N 39°13' W 076°29'3 6.3
2017-Oct-11 17:01N 39°14' W 076°33'2 0.1
2017-Oct-11 00:01N 39°16' W 076°34'0 0.0
2017-Oct-10 23:30N 39°16' W 076°34'0 0.0
2017-Oct-10 23:01N 39°16' W 076°34'0 0.1
2017-Oct-10 22:30N 39°16' W 076°34'0 0.7
2017-Oct-10 22:01N 39°16' W 076°34'0 0.6
2017-Oct-10 21:30N 39°16' W 076°34'0 0.0
2017-Oct-10 21:01N 39°16' W 076°34'0 0.0
2017-Oct-10 20:31N 39°16' W 076°34'0 0.0
2017-Oct-10 20:01N 39°16' W 076°34'0 0.0
2017-Oct-10 19:31N 39°16' W 076°34'0 0.0
2017-Oct-10 19:00N 39°16' W 076°34'0 0.0
2017-Oct-10 18:30N 39°16' W 076°34'0 0.0
2017-Oct-10 18:00N 39°16' W 076°34'0 0.0
2017-Oct-10 17:30N 39°16' W 076°34'0 0.0
2017-Oct-10 17:00N 39°16' W 076°34'0 0.0
2017-Oct-10 16:30N 39°16' W 076°34'0 0.0
2017-Oct-10 16:00N 39°16' W 076°34'0 0.0
2017-Oct-10 15:30N 39°16' W 076°34'0 0.0
2017-Oct-10 15:01N 39°16' W 076°34'1 0.7
2017-Oct-10 14:01N 39°15' W 076°34'1 1.9
2017-Oct-10 13:30N 39°15' W 076°33'0 0.9
2017-Oct-10 13:01N 39°15' W 076°32'0 0.0
2017-Oct-10 12:30N 39°15' W 076°32'1 2.6
2017-Oct-10 12:00N 39°15' W 076°34'0 0.9
2017-Oct-10 11:30N 39°15' W 076°33'1 2.3
2017-Oct-10 11:01N 39°14' W 076°32'1 1.2
2017-Oct-10 10:31N 39°14' W 076°32'0 0.0
2017-Oct-10 10:01N 39°14' W 076°32'0 0.0
2017-Oct-10 09:30N 39°14' W 076°32'0 0.0
2017-Oct-10 09:01N 39°14' W 076°32'0 0.0
2017-Oct-10 08:31N 39°14' W 076°32'0 0.7
2017-Oct-10 08:00N 39°14' W 076°32'1 1.1
2017-Oct-10 07:30N 39°14' W 076°32'1 1.4
2017-Oct-10 07:00N 39°13' W 076°32'1 1.9
2017-Oct-10 06:30N 39°14' W 076°32'0 0.0
2017-Oct-10 06:00N 39°14' W 076°32'0 0.0
2017-Oct-10 05:31N 39°14' W 076°32'0 0.0
2017-Oct-10 05:00N 39°14' W 076°32'0 0.0
2017-Oct-10 04:31N 39°14' W 076°32'0 0.0
2017-Oct-10 04:00N 39°14' W 076°32'1 2.2
2017-Oct-10 03:30N 39°15' W 076°33'1 1.2
2017-Oct-10 03:00N 39°15' W 076°33'2 4.7
2017-Oct-10 02:30N 39°13' W 076°35'0 0.1
2017-Oct-10 02:00N 39°13' W 076°35'1 2.2
2017-Oct-10 01:31N 39°13' W 076°33'1 2.0
2017-Oct-10 01:01N 39°13' W 076°32'3 5.4
2017-Oct-10 00:30N 39°15' W 076°35'1 1.7
2017-Oct-10 00:01N 39°16' W 076°36'2 3.7
2017-Oct-09 23:30N 39°15' W 076°33'2 3.4
2017-Oct-09 22:59N 39°13' W 076°32'3 3.2
2017-Oct-09 22:11N 39°13' W 076°29'2 3.2
2017-Oct-09 21:38N 39°13' W 076°31'2 8.6
2017-Oct-09 21:21N 39°14' W 076°33'2 5.0
2017-Oct-09 21:00N 39°16' W 076°34'0 0.0
2017-Oct-09 20:31N 39°16' W 076°34'0 0.0
2017-Oct-09 20:00N 39°16' W 076°34'0 0.0
2017-Oct-09 19:31N 39°16' W 076°34'0 0.0
2017-Oct-09 19:01N 39°16' W 076°34'0 0.0
2017-Oct-09 18:31N 39°16' W 076°34'0 0.0
2017-Oct-09 18:01N 39°16' W 076°34'0 0.0
2017-Oct-09 17:31N 39°16' W 076°34'1 1.9
2017-Oct-09 17:01N 39°15' W 076°35'1 2.1
2017-Oct-09 16:23N 39°15' W 076°33'  

Dump ship's entire track history